Time;durP1;ratioP1;P1;durP2;ratioP2;P2;SDS_P1;SDS_P2;PMS_P1;PMS_P2;Temp;Humidity;BMP_temperature;BMP_pressure;BME280_temperature;BME280_humidity;BME280_pressure;Samples;Min_cycle;Max_cycle;Signal;HPM_P1;HPM_P2
2023/12/28 00:00:56;;;;;;;3.73;2.00;;;7.80;47.50;;;9.58;39.62;97655.75;5031134;28;20041;-63
2023/12/28 00:03:23;;;;;;;3.73;2.23;;;7.70;47.90;;;9.52;39.68;97664.31;5031081;28;20041;-63
2023/12/28 00:05:51;;;;;;;5.23;3.13;;;7.70;48.00;;;9.49;39.67;97667.31;5031224;28;20046;-63
2023/12/28 00:08:19;;;;;;;4.60;2.90;;;7.60;48.10;;;9.44;39.63;97660.63;5029509;28;20046;-64
2023/12/28 00:10:47;;;;;;;3.63;2.10;;;7.50;48.60;;;9.43;39.82;97655.47;5030634;28;20053;-61
2023/12/28 00:13:14;;;;;;;4.13;2.67;;;7.50;48.50;;;9.42;39.59;97648.47;5029365;28;20053;-61
2023/12/28 00:15:42;;;;;;;3.73;2.20;;;7.50;48.60;;;9.39;39.42;97654.94;5030842;28;20045;-61
2023/12/28 00:18:10;;;;;;;3.40;1.80;;;7.50;47.90;;;9.41;39.44;97652.13;5030453;28;20075;-63
2023/12/28 00:20:38;;;;;;;2.73;1.70;;;7.60;46.60;;;9.44;39.29;97657.13;5030769;28;20041;-63
2023/12/28 00:23:06;;;;;;;3.00;1.50;;;7.80;46.00;;;9.51;38.96;97666.16;5029106;28;20615;-63
2023/12/28 00:25:33;;;;;;;2.17;1.50;;;7.90;45.40;;;9.60;38.59;97667.06;5031025;28;20037;-63
2023/12/28 00:28:01;;;;;;;2.33;1.50;;;8.00;44.60;;;9.65;38.34;97668.28;5029486;28;20399;-63
2023/12/28 00:30:29;;;;;;;3.63;1.97;;;8.20;44.50;;;9.69;38.58;97662.63;5028978;28;20054;-63
2023/12/28 00:32:58;;;;;;;2.83;1.90;;;8.20;44.40;;;9.72;38.23;97667.66;5029486;28;20061;-63
2023/12/28 00:35:25;;;;;;;2.80;1.93;;;8.30;43.30;;;9.77;38.64;97666.19;5028963;28;20535;-63
2023/12/28 00:37:53;;;;;;;3.43;1.73;;;8.30;44.10;;;9.81;38.82;97669.38;5029261;28;20054;-63
2023/12/28 00:40:21;;;;;;;2.20;1.50;;;8.30;44.90;;;9.83;38.32;97665.56;5028804;28;20046;-63
2023/12/28 00:42:49;;;;;;;2.30;1.60;;;8.30;44.40;;;9.86;38.35;97667.91;5028835;28;20050;-63
2023/12/28 00:45:17;;;;;;;2.23;1.47;;;8.30;44.30;;;9.88;38.63;97666.94;5029551;28;20054;-63
2023/12/28 00:47:45;;;;;;;2.77;1.47;;;8.30;44.40;;;9.90;38.51;97667.59;5030905;28;20042;-64
2023/12/28 00:50:14;;;;;;;4.67;1.73;;;8.30;45.10;;;9.89;38.53;97663.25;5032387;28;20072;-64
2023/12/28 00:52:42;;;;;;;2.70;1.80;;;8.20;45.30;;;9.84;38.83;97669.88;5032288;28;20406;-64
2023/12/28 00:55:10;;;;;;;2.20;1.77;;;8.10;45.60;;;9.80;39.15;97665.03;5034143;28;20049;-63
2023/12/28 00:57:38;;;;;;;3.93;2.30;;;8.00;46.40;;;9.73;38.79;97669.31;5034563;28;20041;-63
2023/12/28 01:00:08;;;;;;;3.73;2.00;;;7.90;46.90;;;9.63;39.01;97664.94;5031881;28;20042;-61
2023/12/28 01:02:35;;;;;;;4.23;2.37;;;7.70;47.40;;;9.55;39.21;97662.19;5016536;28;20045;-63
2023/12/28 01:05:04;;;;;;;4.47;2.47;;;7.60;47.80;;;9.46;39.47;97676.44;5032695;28;20060;-63
2023/12/28 01:07:31;;;;;;;4.30;2.10;;;7.50;48.10;;;9.38;39.35;97671.03;5032519;28;20053;-64
2023/12/28 01:09:59;;;;;;;3.70;2.20;;;7.30;48.40;;;9.33;39.41;97668.84;5033517;28;20045;-63
2023/12/28 01:12:26;;;;;;;4.70;2.00;;;7.30;48.30;;;9.26;39.59;97679.22;5012837;28;20053;-63
2023/12/28 01:14:54;;;;;;;2.97;2.03;;;7.30;48.60;;;9.20;39.64;97673.69;5029289;28;20037;-63
2023/12/28 01:17:22;;;;;;;3.80;1.87;;;7.20;48.40;;;9.16;39.95;97665.19;5033616;28;20063;-63
2023/12/28 01:19:49;;;;;;;3.23;1.90;;;7.30;48.90;;;9.14;39.83;97671.66;5033427;28;20041;-63
2023/12/28 01:22:17;;;;;;;4.07;2.37;;;7.20;48.40;;;9.15;39.50;97668.00;5033773;28;20046;-61
2023/12/28 01:24:49;;;;;;;3.43;1.83;;;7.30;47.80;;;9.14;39.48;97680.44;5032579;28;20060;-62
2023/12/28 01:27:17;;;;;;;3.17;1.90;;;7.30;46.90;;;9.17;39.65;97680.16;5032253;28;20037;-61
2023/12/28 01:29:44;;;;;;;4.93;2.00;;;7.40;47.50;;;9.21;39.52;97686.00;5031655;28;20333;-63
2023/12/28 01:32:12;;;;;;;3.33;1.87;;;7.50;47.50;;;9.22;39.73;97685.81;5033359;28;20046;-62
2023/12/28 01:34:42;;;;;;;2.70;1.80;;;7.50;47.40;;;9.26;39.91;97687.19;5015252;28;20046;-61
2023/12/28 01:37:10;;;;;;;3.90;2.07;;;7.60;47.80;;;9.27;39.85;97691.53;5032345;28;20049;-62
2023/12/28 01:39:37;;;;;;;4.67;2.10;;;7.50;47.60;;;9.27;39.51;97704.00;5031624;28;20050;-61
2023/12/28 01:42:05;;;;;;;3.03;1.80;;;7.50;47.50;;;9.26;39.84;97707.63;5032495;28;20049;-61
2023/12/28 01:44:32;;;;;;;5.43;2.37;;;7.50;47.80;;;9.26;39.74;97710.28;5031576;28;20048;-62
2023/12/28 01:47:00;;;;;;;3.63;2.23;;;7.50;47.80;;;9.23;39.75;97703.44;5032985;28;20045;-61
2023/12/28 01:49:28;;;;;;;3.83;1.77;;;7.40;47.70;;;9.24;39.63;97707.75;5031619;28;20056;-61
2023/12/28 01:51:57;;;;;;;3.07;2.17;;;7.40;47.90;;;9.27;39.67;97710.13;5030260;28;20046;-61
2023/12/28 01:54:25;;;;;;;2.50;1.73;;;7.50;47.80;;;9.30;39.68;97710.81;5031307;28;20065;-61
2023/12/28 01:56:53;;;;;;;3.17;1.70;;;7.50;47.50;;;9.35;39.72;97716.50;5033179;28;20053;-61
2023/12/28 01:59:21;;;;;;;2.40;1.40;;;7.60;46.90;;;9.40;39.48;97719.53;5030791;28;20500;-61
2023/12/28 02:01:48;;;;;;;1.77;1.30;;;7.80;46.30;;;9.48;39.22;97716.97;5031222;28;20097;-61
2023/12/28 02:04:16;;;;;;;3.00;1.60;;;7.90;45.80;;;9.55;39.08;97725.97;5032430;28;20041;-61
2023/12/28 02:06:44;;;;;;;2.37;1.43;;;8.00;45.60;;;9.62;38.85;97731.53;5015522;28;20042;-61
2023/12/28 02:09:12;;;;;;;3.00;1.53;;;8.10;45.00;;;9.70;38.77;97725.47;5030909;28;20053;-61
2023/12/28 02:11:39;;;;;;;2.87;1.47;;;8.30;44.80;;;9.76;38.94;97725.66;5015426;28;20045;-61
2023/12/28 02:14:07;;;;;;;2.63;1.70;;;8.30;44.50;;;9.84;38.60;97730.22;5032435;28;20045;-61
2023/12/28 02:16:44;;;;;;;2.73;1.50;;;8.40;44.20;;;9.88;38.53;97726.25;5031373;28;20050;-61
2023/12/28 02:19:50;;;;;;;3.67;1.57;;;8.50;44.00;;;9.93;38.86;97731.13;5015267;28;20056;-61
2023/12/28 02:22:18;;;;;;;2.47;1.70;;;8.60;42.00;;;10.01;38.28;97724.03;5026939;28;20066;-61
2023/12/28 02:25:11;;;;;;;2.63;1.70;;;8.60;43.80;;;10.07;38.43;97725.22;5030923;28;20053;-61
2023/12/28 02:27:48;;;;;;;2.90;1.50;;;8.70;42.60;;;10.15;38.50;97725.28;5019732;28;20072;-61
2023/12/28 02:30:21;;;;;;;2.70;1.60;;;8.70;43.60;;;10.19;38.51;97729.28;5014933;28;20060;-62
2023/12/28 02:33:12;;;;;;;2.10;1.50;;;8.70;43.50;;;10.22;37.92;97731.66;5032246;28;20045;-61
2023/12/28 02:35:52;;;;;;;1.73;1.50;;;8.80;41.50;;;10.28;38.05;97726.69;5023756;28;20045;-61
2023/12/28 02:38:20;;;;;;;1.90;1.43;;;8.90;43.00;;;10.29;37.93;97712.38;5030198;28;20513;-61
2023/12/28 02:40:49;;;;;;;2.00;1.40;;;8.80;43.20;;;10.32;38.01;97720.94;5031067;28;20045;-61
2023/12/28 02:43:17;;;;;;;1.93;1.50;;;8.90;43.50;;;10.36;37.94;97710.81;5014325;28;20428;-61
2023/12/28 02:45:45;;;;;;;1.83;1.40;;;8.90;43.50;;;10.38;38.10;97719.47;5031064;28;20416;-61
2023/12/28 02:48:13;;;;;;;3.10;1.67;;;8.90;43.10;;;10.41;37.95;97714.66;5031687;28;20042;-61
2023/12/28 02:50:41;;;;;;;2.27;1.63;;;9.00;43.20;;;10.45;37.66;97715.19;5031922;28;20528;-61
2023/12/28 02:53:09;;;;;;;2.07;1.57;;;9.00;43.30;;;10.48;37.56;97719.34;5031117;28;20037;-61
2023/12/28 02:55:36;;;;;;;2.07;1.30;;;9.00;43.30;;;10.52;37.83;97726.03;5006621;28;20520;-61
2023/12/28 02:58:05;;;;;;;2.67;1.80;;;9.00;43.30;;;10.53;37.75;97727.69;5014612;28;20056;-61
2023/12/28 03:00:32;;;;;;;2.90;1.67;;;9.00;42.90;;;10.56;37.96;97722.88;5030210;28;20496;-62
2023/12/28 03:03:00;;;;;;;3.07;1.27;;;9.00;43.30;;;10.55;37.69;97717.72;5029909;28;20045;-61
2023/12/28 03:05:28;;;;;;;1.97;1.50;;;9.00;43.40;;;10.56;37.75;97712.22;5031528;28;20037;-62
2023/12/28 03:07:57;;;;;;;1.33;1.17;;;9.00;43.20;;;10.60;37.88;97708.28;5031581;28;20041;-61
2023/12/28 03:10:25;;;;;;;2.40;1.80;;;9.10;43.20;;;10.63;37.79;97715.91;5029279;28;20046;-62
2023/12/28 03:12:52;;;;;;;2.80;1.73;;;9.10;42.90;;;10.66;37.59;97721.91;5031294;28;20448;-61
2023/12/28 03:15:20;;;;;;;1.57;1.30;;;9.20;43.20;;;10.69;37.74;97724.28;5031373;28;20492;-61
2023/12/28 03:17:49;;;;;;;3.07;1.50;;;9.20;43.40;;;10.70;37.74;97712.63;5014280;28;20049;-62
2023/12/28 03:20:17;;;;;;;1.90;1.53;;;9.10;43.90;;;10.69;38.18;97711.78;5030180;28;20060;-61
2023/12/28 03:22:45;;;;;;;2.40;1.43;;;9.10;44.50;;;10.69;37.71;97713.63;5029631;28;20056;-62
2023/12/28 03:25:13;;;;;;;2.53;1.57;;;9.00;44.50;;;10.68;38.05;97704.78;5030244;28;20063;-63
2023/12/28 03:27:41;;;;;;;3.03;1.43;;;9.10;44.30;;;10.71;37.80;97703.66;5031412;28;20045;-61
2023/12/28 03:30:10;;;;;;;2.40;1.40;;;9.10;44.10;;;10.73;37.64;97697.16;5014013;28;20045;-62
2023/12/28 03:32:39;;;;;;;2.20;1.70;;;9.10;43.60;;;10.74;37.40;97709.50;5021951;28;20386;-62
2023/12/28 03:35:07;;;;;;;1.87;1.37;;;9.20;41.40;;;10.79;37.29;97693.84;5031211;28;20041;-61
2023/12/28 03:37:35;;;;;;;2.27;1.37;;;9.30;42.60;;;10.87;37.17;97694.88;5030117;28;20416;-61
2023/12/28 03:40:03;;;;;;;3.10;1.33;;;9.50;42.70;;;10.92;37.14;97695.25;5030907;28;20056;-62
2023/12/28 03:42:31;;;;;;;1.47;1.03;;;9.60;42.40;;;10.96;37.05;97688.59;5030708;28;20049;-61
2023/12/28 03:44:58;;;;;;;3.13;1.50;;;9.60;42.30;;;11.00;36.69;97690.75;5031352;28;20046;-62
2023/12/28 03:47:26;;;;;;;1.63;1.07;;;9.70;41.70;;;11.03;37.21;97695.75;5029384;28;20041;-62
2023/12/28 03:49:56;;;;;;;2.50;1.50;;;9.70;42.00;;;11.08;37.20;97689.94;5029776;28;20053;-62
2023/12/28 03:52:27;;;;;;;2.97;1.60;;;9.80;42.10;;;11.13;37.34;97684.13;5030966;28;20054;-61
2023/12/28 03:54:54;;;;;;;1.67;1.00;;;9.70;41.70;;;11.15;36.93;97677.63;5029982;28;20072;-62
2023/12/28 03:57:22;;;;;;;1.50;1.20;;;9.80;42.50;;;11.19;37.20;97680.81;5029849;28;20068;-62
2023/12/28 03:59:50;;;;;;;1.83;1.30;;;9.80;42.70;;;11.22;37.36;97685.78;5012852;28;20402;-62
2023/12/28 04:02:17;;;;;;;2.33;1.20;;;9.80;43.10;;;11.26;37.34;97686.31;5029314;28;20090;-61
2023/12/28 04:04:45;;;;;;;2.07;1.50;;;9.80;43.30;;;11.27;37.35;97682.66;5029860;28;20052;-62
2023/12/28 04:07:13;;;;;;;1.80;1.40;;;9.80;42.90;;;11.27;37.46;97696.81;5030732;28;20053;-62
2023/12/28 04:09:40;;;;;;;2.40;1.53;;;9.80;43.30;;;11.31;37.84;97692.81;5029003;28;20052;-61
2023/12/28 04:12:08;;;;;;;4.20;1.30;;;9.90;42.50;;;11.33;37.51;97698.81;5030806;28;20053;-61
2023/12/28 04:14:36;;;;;;;1.30;1.10;;;10.00;42.90;;;11.39;37.77;97692.00;5031044;28;20050;-62
2023/12/28 04:17:03;;;;;;;2.53;1.40;;;10.10;43.20;;;11.45;37.55;97686.00;5030587;28;20492;-62
2023/12/28 04:19:31;;;;;;;1.83;1.30;;;10.10;43.50;;;11.50;37.89;97693.50;5029176;28;20528;-62
2023/12/28 04:22:00;;;;;;;2.03;1.23;;;10.20;43.40;;;11.58;38.09;97686.34;5031172;28;20045;-61
2023/12/28 04:24:28;;;;;;;1.70;1.07;;;10.30;43.90;;;11.63;37.95;97689.34;5032994;28;20046;-61
2023/12/28 04:26:56;;;;;;;2.17;1.27;;;10.40;44.20;;;11.71;38.25;97693.84;5016866;28;20053;-62
2023/12/28 04:29:24;;;;;;;2.97;1.47;;;10.40;44.40;;;11.76;38.44;97688.00;5033198;28;20072;-62
2023/12/28 04:31:51;;;;;;;2.43;1.50;;;10.50;44.60;;;11.81;38.19;97694.50;5033446;28;20053;-62
2023/12/28 04:34:20;;;;;;;2.57;1.43;;;10.50;44.80;;;11.86;38.50;97674.47;5032902;28;20084;-62
2023/12/28 04:36:48;;;;;;;2.53;1.50;;;10.60;45.00;;;11.90;38.41;97684.66;5033292;28;20045;-62
2023/12/28 04:39:16;;;;;;;2.10;1.70;;;10.60;44.90;;;11.91;38.54;97681.00;5033284;28;20053;-62
2023/12/28 04:41:44;;;;;;;2.20;1.33;;;10.60;45.00;;;11.93;38.72;97681.69;5033160;28;20054;-62
2023/12/28 04:44:11;;;;;;;1.93;1.10;;;10.60;45.30;;;11.91;38.85;97683.69;5034292;28;20509;-62
2023/12/28 04:46:43;;;;;;;1.33;1.10;;;10.60;45.60;;;11.93;38.69;97684.34;5033164;28;20256;-62
2023/12/28 04:49:12;;;;;;;2.63;1.63;;;10.60;45.60;;;11.92;39.02;97668.50;5034591;28;20049;-62
2023/12/28 04:51:44;;;;;;;2.53;1.40;;;10.60;45.80;;;11.90;38.94;97676.66;5014922;28;20053;-62
2023/12/28 04:54:12;;;;;;;3.10;1.53;;;10.60;45.90;;;11.91;39.18;97672.19;5032594;28;20053;-62
2023/12/28 04:56:40;;;;;;;2.00;1.10;;;10.60;46.20;;;11.93;39.09;97681.69;5016356;28;20053;-62
2023/12/28 04:59:07;;;;;;;2.07;1.30;;;10.60;46.40;;;11.91;39.10;97683.69;5033870;28;20046;-62
2023/12/28 05:01:44;;;;;;;1.63;1.00;;;10.60;46.80;;;11.89;39.91;97674.16;5032338;28;20061;-62
2023/12/28 05:04:12;;;;;;;3.27;1.87;;;10.60;47.70;;;11.89;39.68;97680.34;5016301;28;20049;-61
2023/12/28 05:06:44;;;;;;;5.17;1.53;;;10.60;47.90;;;11.90;40.41;97687.34;5034191;28;20049;-62
2023/12/28 05:09:13;;;;;;;2.50;1.60;;;10.60;48.50;;;11.89;40.71;97676.81;5032309;28;20045;-62
2023/12/28 05:11:41;;;;;;;1.57;1.33;;;10.60;49.20;;;11.94;40.99;97675.34;5033563;28;20089;-62
2023/12/28 05:14:09;;;;;;;2.93;1.50;;;10.70;49.10;;;11.97;40.73;97675.00;5032234;28;20057;-62
2023/12/28 05:16:38;;;;;;;2.23;1.27;;;10.70;49.10;;;11.98;40.99;97679.34;5033685;28;20435;-62
2023/12/28 05:19:05;;;;;;;2.50;1.40;;;10.70;49.50;;;11.97;40.81;97675.00;5033384;28;20041;-62
2023/12/28 05:21:33;;;;;;;2.50;1.73;;;10.70;49.50;;;12.00;40.98;97676.50;5032190;28;20057;-62
2023/12/28 05:24:01;;;;;;;1.87;1.33;;;10.70;49.60;;;11.95;41.20;97679.66;5033448;28;20409;-62
2023/12/28 05:26:28;;;;;;;2.60;1.17;;;10.70;49.60;;;11.94;41.07;97680.69;5033284;28;20045;-62
2023/12/28 05:28:56;;;;;;;2.03;1.30;;;10.70;49.70;;;11.93;41.50;97700.34;5033239;28;20037;-62
2023/12/28 05:31:24;;;;;;;2.57;1.40;;;10.70;50.20;;;11.89;41.40;97699.03;5015808;28;20049;-62
2023/12/28 05:33:52;;;;;;;1.60;1.20;;;10.70;50.20;;;11.93;42.00;97699.53;5031903;28;20064;-62
2023/12/28 05:36:19;;;;;;;3.27;2.13;;;10.80;50.50;;;11.85;42.93;97702.19;5032169;28;20054;-62
2023/12/28 05:38:47;;;;;;;2.20;1.70;;;10.80;52.20;;;11.79;44.75;97720.50;5031548;28;20044;-61
2023/12/28 05:41:14;;;;;;;1.37;1.20;;;10.90;54.90;;;11.82;44.81;97722.00;5033334;28;20049;-62
2023/12/28 05:43:42;;;;;;;1.90;1.10;;;10.90;54.70;;;11.92;45.00;97735.19;5032819;28;20052;-61
2023/12/28 05:46:10;;;;;;;3.27;1.40;;;11.00;54.50;;;12.02;45.07;97719.88;5031837;28;20416;-62
2023/12/28 05:48:38;;;;;;;2.90;1.20;;;11.10;55.20;;;12.10;44.93;97722.53;5032632;28;20045;-62
2023/12/28 05:51:05;;;;;;;3.67;1.60;;;11.10;55.20;;;12.19;45.07;97713.50;5033197;28;20413;-62
2023/12/28 05:53:33;;;;;;;3.87;1.10;;;11.10;55.40;;;12.19;45.73;97723.31;5032939;28;20053;-62
2023/12/28 05:56:03;;;;;;;2.73;1.30;;;11.10;57.90;;;12.19;45.79;97718.84;5033038;28;20050;-62
2023/12/28 05:58:31;;;;;;;1.40;1.17;;;11.10;57.50;;;12.13;46.46;97716.00;5032005;28;20045;-62
2023/12/28 06:00:59;;;;;;;1.70;1.17;;;11.10;58.00;;;12.26;46.51;97727.00;5033254;28;20050;-62
2023/12/28 06:03:28;;;;;;;4.18;1.10;;;11.10;58.10;;;12.34;46.39;97729.63;5032822;28;20057;-62
2023/12/28 06:05:56;;;;;;;2.65;1.15;;;11.10;57.90;;;12.37;46.23;97737.31;5025302;28;20042;-61
2023/12/28 06:08:24;;;;;;;3.97;1.73;;;11.10;58.30;;;12.40;46.85;97747.63;5032382;28;20527;-62
2023/12/28 06:10:54;;;;;;;2.13;1.27;;;11.20;59.30;;;12.31;47.20;97743.34;5024965;28;20034;-63
2023/12/28 06:13:22;;;;;;;1.20;1.10;;;11.20;59.40;;;12.40;46.90;97754.81;5031721;28;20057;-61
2023/12/28 06:15:49;;;;;;;1.93;1.50;;;11.20;59.20;;;12.38;46.95;97757.66;5032675;28;20048;-62
2023/12/28 06:18:17;;;;;;;2.00;1.42;;;11.20;59.00;;;12.44;46.86;97760.66;5032148;28;20049;-61
2023/12/28 06:20:45;;;;;;;1.20;1.10;;;11.10;58.60;;;12.51;46.27;97765.16;5031357;28;20060;-62
2023/12/28 06:23:13;;;;;;;2.60;1.23;;;11.20;58.10;;;12.51;46.50;97751.78;5032519;28;20044;-62
2023/12/28 06:25:40;;;;;;;1.95;1.20;;;11.20;58.10;;;12.49;46.54;97751.13;5032508;28;20064;-62
2023/12/28 06:28:08;;;;;;;2.20;1.33;;;11.10;58.10;;;12.54;46.27;97750.59;5032575;28;20042;-62
2023/12/28 06:30:36;;;;;;;2.45;1.50;;;11.20;57.90;;;12.51;46.38;97753.63;5032250;28;20049;-62
2023/12/28 06:33:03;;;;;;;2.38;1.50;;;11.20;58.90;;;12.52;46.40;97756.16;5032239;28;20056;-62
2023/12/28 06:35:31;;;;;;;3.08;1.50;;;11.20;58.80;;;12.57;46.32;97755.63;5031962;28;20054;-62
2023/12/28 06:37:59;;;;;;;1.67;1.20;;;11.30;58.20;;;12.60;46.17;97761.47;5032380;28;20072;-62
2023/12/28 06:40:27;;;;;;;2.50;1.30;;;11.20;57.90;;;12.68;46.25;97770.44;5030681;28;20052;-62
2023/12/28 06:42:54;;;;;;;1.83;1.53;;;11.30;58.00;;;12.69;46.10;97778.28;5032097;28;20384;-61
2023/12/28 06:45:27;;;;;;;3.00;1.17;;;11.30;58.00;;;12.71;46.05;97783.47;5032180;28;20045;-62
2023/12/28 06:47:55;;;;;;;2.85;1.50;;;11.30;57.90;;;12.73;46.20;97784.13;5031691;28;20045;-62
2023/12/28 06:50:23;;;;;;;1.63;1.37;;;11.30;58.20;;;12.75;46.19;97784.78;5031895;28;20041;-62
2023/12/28 06:52:51;;;;;;;5.50;1.60;;;11.30;58.40;;;12.68;46.52;97771.28;5014166;28;20394;-62
2023/12/28 06:55:18;;;;;;;1.27;1.15;;;11.20;58.80;;;12.67;46.82;97780.28;5030621;28;20037;-62
2023/12/28 06:57:46;;;;;;;1.33;1.10;;;11.20;59.50;;;12.63;47.45;97775.47;5031600;28;20312;-62
2023/12/28 07:00:14;;;;;;;0.90;0.90;;;11.20;60.50;;;12.41;49.55;97793.88;5029574;28;20045;-62
2023/12/28 07:02:42;;;;;;;1.97;1.10;;;11.10;64.00;;;12.44;49.14;97801.53;5030185;28;20053;-62
2023/12/28 07:05:12;;;;;;;1.43;1.17;;;11.20;63.20;;;12.37;50.24;97796.06;5031634;28;20046;-60
2023/12/28 07:07:39;;;;;;;1.88;1.15;;;11.20;64.70;;;12.25;51.30;97802.72;5031669;28;20389;-62
2023/12/28 07:10:07;;;;;;;2.13;0.90;;;11.10;66.50;;;12.28;51.26;97812.25;5031508;28;20525;-65
2023/12/28 07:12:35;;;;;;;2.13;1.40;;;11.10;67.60;;;12.16;52.70;97807.25;5031333;28;20049;-63
2023/12/28 07:15:03;;;;;;;2.30;1.33;;;11.00;69.80;;;12.15;52.65;97799.41;5031346;28;20061;-63
2023/12/28 07:17:31;;;;;;;2.70;1.50;;;10.90;70.90;;;12.26;52.75;97812.41;5031539;28;20045;-64
2023/12/28 07:19:59;;;;;;;1.77;1.30;;;10.90;69.60;;;12.18;53.06;97807.91;5031234;28;20056;-64
2023/12/28 07:22:27;;;;;;;1.57;1.30;;;10.90;70.60;;;12.24;53.15;97811.75;5030222;28;20053;-63
2023/12/28 07:24:55;;;;;;;4.03;1.70;;;10.90;71.30;;;12.16;53.45;97820.59;5031026;28;20049;-65
2023/12/28 07:27:22;;;;;;;1.97;1.60;;;10.90;71.80;;;12.08;54.46;97815.25;5031202;28;20045;-65
2023/12/28 07:29:50;;;;;;;1.97;1.73;;;10.80;74.90;;;11.95;54.96;97823.75;5029685;28;20417;-64
2023/12/28 07:32:19;;;;;;;2.10;1.20;;;10.70;76.00;;;12.05;54.92;97817.41;5031227;28;20049;-64
2023/12/28 07:34:47;;;;;;;1.73;1.37;;;10.70;76.30;;;11.91;55.43;97816.25;5030767;28;20045;-65
2023/12/28 07:37:15;;;;;;;2.40;1.70;;;10.50;77.30;;;12.04;55.09;97831.75;5013553;28;20053;-65
2023/12/28 07:39:42;;;;;;;2.55;1.20;;;10.60;75.80;;;11.98;55.98;97834.09;5030729;28;20056;-65
2023/12/28 07:42:10;;;;;;;2.60;1.40;;;10.60;77.90;;;12.03;55.38;97822.91;5029000;28;20124;-64
2023/12/28 07:44:39;;;;;;;2.40;1.43;;;10.50;77.70;;;12.08;55.23;97828.59;5013070;28;20049;-63
2023/12/28 07:47:07;;;;;;;1.60;1.17;;;10.60;77.40;;;12.13;54.80;97828.09;5029734;28;20052;-64
2023/12/28 07:49:36;;;;;;;4.17;1.63;;;10.50;76.70;;;12.16;54.47;97828.59;5030779;28;20412;-66
2023/12/28 07:52:04;;;;;;;1.73;1.33;;;10.70;77.00;;;12.23;54.78;97833.25;5023132;28;20045;-64
2023/12/28 07:54:32;;;;;;;3.87;1.60;;;10.60;76.60;;;12.19;54.78;97836.28;5026062;28;20045;-62
2023/12/28 07:57:00;;;;;;;3.47;1.50;;;10.60;77.20;;;12.18;54.80;97841.78;5030436;28;20041;-63
2023/12/28 07:59:28;;;;;;;4.03;1.67;;;10.50;77.50;;;12.14;55.19;97837.78;5030855;28;20056;-64
2023/12/28 08:01:56;;;;;;;3.80;1.63;;;10.50;78.40;;;12.12;55.13;97845.13;5030696;28;20410;-62
2023/12/28 08:04:24;;;;;;;2.13;1.47;;;10.50;78.50;;;12.14;54.98;97857.28;5008014;28;20046;-64
2023/12/28 08:06:52;;;;;;;4.07;1.80;;;10.50;78.10;;;12.12;55.50;97861.13;5028890;28;20417;-65
2023/12/28 08:09:19;;;;;;;2.00;1.40;;;10.50;78.20;;;12.13;55.14;97850.25;5030465;28;20045;-64
2023/12/28 08:11:47;;;;;;;2.15;1.52;;;10.50;77.80;;;12.15;55.24;97861.59;5030849;28;20049;-65
2023/12/28 08:14:15;;;;;;;2.77;1.80;;;10.50;77.50;;;12.18;54.73;97866.63;5013047;28;20050;-65
2023/12/28 08:16:42;;;;;;;4.00;1.93;;;10.50;77.20;;;12.09;55.44;97858.78;5030412;28;20045;-65
2023/12/28 08:19:10;;;;;;;3.77;2.20;;;10.50;78.00;;;12.03;55.32;97857.59;5030797;28;20049;-64
2023/12/28 08:21:38;;;;;;;4.10;2.47;;;10.30;77.80;;;12.08;55.19;97855.28;5030804;28;20052;-63
2023/12/28 08:24:06;;;;;;;4.80;1.90;;;10.40;77.30;;;12.11;54.89;97846.09;5030235;28;20034;-64
2023/12/28 08:26:33;;;;;;;2.60;1.73;;;10.50;76.40;;;12.11;54.68;97849.59;5030833;28;20041;-66
2023/12/28 08:29:02;;;;;;;2.83;1.60;;;10.50;75.10;;;12.09;54.24;97845.44;5030185;28;20041;-65
2023/12/28 08:31:29;;;;;;;2.25;1.50;;;10.50;74.30;;;12.09;54.20;97856.09;5030788;28;20041;-63
2023/12/28 08:33:57;;;;;;;2.23;1.40;;;10.60;73.80;;;11.94;54.91;97850.56;5030471;28;20049;-63
2023/12/28 08:36:25;;;;;;;2.43;1.47;;;10.50;73.60;;;11.94;54.47;97846.09;5029234;28;20056;-61
2023/12/28 08:38:53;;;;;;;2.90;1.90;;;10.50;73.90;;;12.02;54.80;97848.78;5029196;28;20044;-60
2023/12/28 08:41:24;;;;;;;2.60;1.30;;;10.60;73.40;;;12.08;54.48;97846.41;5030695;28;20424;-61
2023/12/28 08:43:53;;;;;;;4.00;1.57;;;10.60;73.60;;;12.10;54.12;97849.78;5028977;28;20061;-61
2023/12/28 08:46:22;;;;;;;1.80;1.30;;;10.60;72.80;;;12.12;54.41;97847.78;5030598;28;20045;-62
2023/12/28 08:48:50;;;;;;;2.30;1.47;;;10.70;73.30;;;12.02;54.66;97851.44;5030145;28;20358;-61
2023/12/28 08:51:18;;;;;;;3.23;1.30;;;10.60;73.30;;;12.08;54.16;97849.09;5029244;28;20044;-62
2023/12/28 08:53:46;;;;;;;4.53;1.83;;;10.60;73.10;;;12.10;54.02;97852.44;5030314;28;20060;-62
2023/12/28 08:56:17;;;;;;;2.13;1.47;;;10.70;72.80;;;12.11;53.94;97846.94;5029099;28;20053;-62
2023/12/28 08:58:50;;;;;;;2.20;1.90;;;10.60;73.00;;;12.10;54.29;97845.28;5027679;28;20060;-62
2023/12/28 09:01:21;;;;;;;4.20;1.60;;;10.60;72.60;;;12.15;54.23;97855.44;5030395;28;20064;-62
2023/12/28 09:03:50;;;;;;;2.50;1.27;;;10.70;72.80;;;12.18;54.18;97844.44;5030075;28;20053;-62
2023/12/28 09:06:20;;;;;;;4.27;1.80;;;10.70;72.60;;;12.17;54.05;97837.41;5030369;28;20045;-63
2023/12/28 09:08:51;;;;;;;1.97;1.40;;;10.70;72.80;;;12.19;54.09;97836.28;5029977;28;20045;-62
2023/12/28 09:11:19;;;;;;;3.30;1.50;;;10.70;72.90;;;12.23;53.99;97833.25;5032879;28;20041;-62
2023/12/28 09:13:46;;;;;;;1.60;1.30;;;10.70;73.00;;;12.22;54.43;97840.44;5032371;28;20389;-62
2023/12/28 09:16:15;;;;;;;3.33;1.80;;;10.70;72.90;;;12.23;53.95;97839.41;5032759;28;20045;-62
2023/12/28 09:18:43;;;;;;;3.90;2.37;;;10.70;72.40;;;12.27;54.14;97845.25;5033310;28;20056;-63
2023/12/28 09:21:11;;;;;;;2.00;1.40;;;10.70;72.70;;;12.28;53.66;97846.94;5032701;28;20045;-63
2023/12/28 09:23:40;;;;;;;2.10;1.40;;;10.80;72.20;;;12.30;54.09;97843.09;5032209;28;20056;-63
2023/12/28 09:26:08;;;;;;;4.03;1.70;;;10.80;72.10;;;12.36;53.76;97839.75;5030419;28;20429;-63
2023/12/28 09:28:36;;;;;;;3.50;1.40;;;10.80;72.30;;;12.40;53.78;97842.94;5015253;28;20037;-62
2023/12/28 09:31:04;;;;;;;1.92;1.48;;;10.90;73.10;;;12.40;53.54;97851.75;5024086;28;20048;-64
2023/12/28 09:33:32;;;;;;;2.37;1.40;;;10.90;71.70;;;12.38;53.65;97858.28;5021855;28;20052;-64
2023/12/28 09:36:02;;;;;;;2.92;1.60;;;10.90;71.30;;;12.37;53.37;97864.63;5028356;28;20049;-64
2023/12/28 09:38:30;;;;;;;3.17;1.63;;;10.90;70.90;;;12.34;53.38;97860.44;5026868;28;20050;-64
2023/12/28 09:41:05;;;;;;;1.70;1.40;;;11.00;71.10;;;12.27;53.71;97874.63;5025414;28;20125;-64
2023/12/28 09:43:38;;;;;;;3.33;1.67;;;10.90;71.20;;;12.23;53.69;97884.78;5028905;28;20041;-64
2023/12/28 09:46:09;;;;;;;3.40;2.00;;;10.90;71.20;;;12.25;53.75;97887.31;5027310;28;20048;-64
2023/12/28 09:48:39;;;;;;;2.20;1.73;;;10.80;70.80;;;12.29;53.27;97891.31;5026977;28;20042;-64
2023/12/28 09:51:06;;;;;;;3.17;2.27;;;10.90;70.70;;;12.21;53.73;97879.66;5027787;28;20041;-64
2023/12/28 09:53:39;;;;;;;2.67;1.97;;;10.80;70.90;;;12.29;53.65;97880.63;5025914;28;20045;-64
2023/12/28 09:56:07;;;;;;;1.77;1.40;;;10.80;71.00;;;12.25;53.62;97879.28;5025771;28;20049;-65
2023/12/28 09:58:36;;;;;;;2.92;1.83;;;10.90;70.50;;;12.27;53.51;97894.16;5026171;28;20045;-64
2023/12/28 10:01:06;;;;;;;2.80;1.80;;;10.90;70.30;;;12.20;53.46;97891.31;5027129;28;20060;-64
2023/12/28 10:03:33;;;;;;;2.77;1.80;;;10.90;70.30;;;12.26;53.27;97889.81;5025505;28;20068;-64
2023/12/28 10:06:01;;;;;;;2.90;1.80;;;10.90;70.00;;;12.33;53.12;97888.16;5026339;28;20049;-64
2023/12/28 10:08:29;;;;;;;2.33;1.47;;;11.00;69.90;;;12.38;53.41;97891.16;5026449;28;20600;-64
2023/12/28 10:10:58;;;;;;;2.70;1.57;;;11.00;69.80;;;12.25;53.76;97895.31;5026232;28;20061;-64
2023/12/28 10:13:26;;;;;;;1.87;1.60;;;11.00;70.50;;;12.21;53.83;97892.13;5018075;28;20113;-64
2023/12/28 10:15:57;;;;;;;1.58;1.30;;;10.90;70.10;;;12.20;53.96;97888.63;5022227;28;20313;-64
2023/12/28 10:18:25;;;;;;;2.27;1.40;;;10.90;70.50;;;12.25;53.70;97885.47;5026422;28;20053;-65
2023/12/28 10:20:54;;;;;;;2.10;1.50;;;11.00;70.20;;;12.31;53.55;97890.16;5026855;28;20058;-64
2023/12/28 10:23:22;;;;;;;2.97;2.00;;;10.90;70.20;;;12.37;53.35;97875.31;5021258;28;20670;-63
2023/12/28 10:25:53;;;;;;;3.03;1.70;;;11.00;70.50;;;12.42;53.37;97883.63;5026667;28;20045;-64
2023/12/28 10:28:21;;;;;;;6.60;1.95;;;11.00;69.90;;;12.43;53.52;97863.97;5023466;28;20049;-64